Flight Track Log - Related Links

Times and Time Zones

All times are in EDT time to prevent confusion due to time zone crossing. See the JLG821 flight status page for this flight to view local times or setup timezone preferences in your user account.

Time Position Orientation Groundspeed Altitude Reporting Facility
EDT Latitude Longitude Course Direction KTS MPH feet Rate Location/Type
11:57AM 35.2892 -77.6558 220° Southwest 161 185 2,300  Level Washington Center
11:58AM 35.2572 -77.6906 222° Southwest 158 182 3,000 393 Climbing Washington Center
11:59AM 35.2475 -77.6494 106° East 181 208 3,100  Climbing Washington Center
12:00PM 35.2933 -77.6583 351° North 173 199 3,000 -47 Descending Washington Center
12:01PM 35.3389 -77.6775 341° North 160 184 3,000 -328 Level Washington Center
12:03PM 35.4025 -77.7325 325° Northwest 168 193 2,000 -452 Descending Washington Center
12:04PM 35.4100 -77.7861 280° West 133 153 1,600 -129 Descending Washington Center
12:05PM 35.4297 -77.8353 296° West 144 166 1,700  Climbing Washington Center
12:06PM 35.4436 -77.8764 293° West 144 166 1,600 -408 Descending Washington Center
12:07PM 35.4514 -77.9072 287° West 134 154 1,000 -509 Descending Washington Center
12:08PM 35.4589 -77.9533 281° West 128 147 700 -151 Descending Washington Center
12:09PM 35.4706 -77.9969 288° West 140 161 700  Level Washington Center
12:10PM 35.5044 -77.9700 33° Northeast 151 174 700 -94 Level Washington Center
12:11PM 35.4778 -77.9514 150° Southeast 130 150 500 -164 Descending Washington Center
12:12PM 35.4542 -77.9736 217° Southwest 140 161 400 557 Descending Washington Center
12:12PM 35.4472 -78.0092 257° West 169 194 1,400 1,631 Climbing Washington Center
12:13PM 35.4797 -78.0508 314° West 176 203 3,200 1,828 Climbing Washington Center
12:15PM 35.5142 -78.1031 309° West 161 185 5,300 1,308 Climbing Washington Center
12:16PM 35.5425 -78.1522 305° West 174 200 6,100 393 Climbing Washington Center
12:17PM 35.5703 -78.2119 300° West 220 253 6,100  Level Washington Center
12:18PM 35.6147 -78.2850 307° West 218 251 6,100  Level Washington Center
12:19PM 35.6467 -78.3447 303° West 207 238 6,100 -295 Level Washington Center
12:20PM 35.6764 -78.4072 300° West 206 237 5,500 -724 Descending Washington Center
12:21PM 35.7236 -78.4397 331° Northwest 215 247 4,700 -730 Descending Washington Center
12:22PM 35.7750 -78.4747 331° Northwest 209 241 4,100 -678 Descending Washington Center
12:23PM 35.8181 -78.5019 333° Northwest 197 227 3,400 -574 Descending Washington Center
12:24PM 35.8653 -78.5422 325° Northwest 199 229 3,000 -400 Descending Washington Center

Login

Don't have an account? Register now (free) for customized features, flight alerts, and more!